createdAt,value
2018-06-27T00:00:56.499Z,32.5
2018-06-27T00:01:58.694Z,32.6
2018-06-27T00:03:00.861Z,32.5
2018-06-27T00:04:03.060Z,32.6
2018-06-27T00:05:05.235Z,32.6
2018-06-27T00:06:07.415Z,32.7
2018-06-27T00:07:09.571Z,32.5
2018-06-27T00:08:12.015Z,32.7
2018-06-27T00:09:14.221Z,32.6
2018-06-27T00:10:16.384Z,32.6
2018-06-27T00:11:18.830Z,32.6
2018-06-27T00:12:21.014Z,32.6
2018-06-27T00:13:23.180Z,32.6
2018-06-27T00:14:25.347Z,32.5
2018-06-27T00:15:27.494Z,32.6
2018-06-27T00:16:29.942Z,32.9
2018-06-27T00:17:32.394Z,32.6
2018-06-27T00:18:34.830Z,32.6
2018-06-27T00:19:37.010Z,32.7
2018-06-27T00:20:39.460Z,32.7
2018-06-27T00:21:41.642Z,32.7
2018-06-27T00:22:43.790Z,32.7
2018-06-27T00:23:45.680Z,32.8
2018-06-27T00:24:48.133Z,32.6
2018-06-27T00:25:50.300Z,32.6
2018-06-27T00:26:52.477Z,32.6
2018-06-27T00:27:54.667Z,32.6
2018-06-27T00:28:56.850Z,32.5
2018-06-27T00:29:59.013Z,32.5
2018-06-27T00:31:01.452Z,32.6
2018-06-27T00:32:03.901Z,32.7
2018-06-27T00:33:05.823Z,32.6
2018-06-27T00:34:07.732Z,32.8
2018-06-27T00:35:09.994Z,32.6
2018-06-27T00:36:12.170Z,32.8
2018-06-27T00:37:14.658Z,32.8
2018-06-27T00:38:16.819Z,32.7
2018-06-27T00:39:19.020Z,32.6
2018-06-27T00:40:21.202Z,32.8
2018-06-27T00:41:23.394Z,32.6
2018-06-27T00:42:25.840Z,32.6
2018-06-27T00:43:28.281Z,32.6
2018-06-27T00:44:30.728Z,32.6
2018-06-27T00:45:32.929Z,32.8
2018-06-27T00:46:35.371Z,32.7
2018-06-27T00:47:37.300Z,32.9
2018-06-27T00:48:39.751Z,32.5
2018-06-27T00:49:42.196Z,32.6
2018-06-27T00:50:44.640Z,32.8
2018-06-27T00:51:46.811Z,32.9
2018-06-27T00:52:48.971Z,32.9
2018-06-27T00:53:51.149Z,32.8
2018-06-27T00:54:53.050Z,32.7
2018-06-27T00:55:55.493Z,32.8
2018-06-27T00:56:57.705Z,32.8
2018-06-27T00:58:00.153Z,32.9
2018-06-27T00:59:02.368Z,32.8
2018-06-27T01:00:04.811Z,32.7
2018-06-27T01:01:06.998Z,32.7
2018-06-27T01:02:09.451Z,32.8
2018-06-27T01:03:11.898Z,32.7
2018-06-27T01:04:14.073Z,32.8
2018-06-27T01:05:15.977Z,32.8
2018-06-27T01:06:17.865Z,32.8
2018-06-27T01:07:20.310Z,32.8
2018-06-27T01:08:22.759Z,32.8
2018-06-27T01:09:24.929Z,32.9
2018-06-27T01:10:27.396Z,32.7
2018-06-27T01:11:29.124Z,32.6
2018-06-27T01:12:31.574Z,32.9
2018-06-27T01:13:34.023Z,32.6
2018-06-27T01:14:36.183Z,32.9
2018-06-27T01:15:38.100Z,32.8
2018-06-27T01:16:40.277Z,32.6
2018-06-27T01:17:42.727Z,32.9
2018-06-27T01:18:44.872Z,32.9
2018-06-27T01:19:47.317Z,32.8
2018-06-27T01:20:49.222Z,32.7
2018-06-27T01:21:51.678Z,32.7
2018-06-27T01:22:53.857Z,32.8
2018-06-27T01:23:56.299Z,32.7
2018-06-27T01:24:58.770Z,32.8
2018-06-27T01:26:00.918Z,32.9
2018-06-27T01:27:02.832Z,32.9
2018-06-27T01:28:04.724Z,32.8
2018-06-27T01:29:06.877Z,32.9
2018-06-27T01:30:09.323Z,32.7
2018-06-27T01:31:11.502Z,32.9
2018-06-27T01:32:13.948Z,32.8
2018-06-27T01:33:16.384Z,32.9
2018-06-27T01:34:18.296Z,32.9
2018-06-27T01:35:20.752Z,32.5
2018-06-27T01:36:23.193Z,32.6
2018-06-27T01:37:25.381Z,32.8
2018-06-27T01:38:27.551Z,32.7
2018-06-27T01:39:29.992Z,32.8
2018-06-27T01:40:32.160Z,32.8
2018-06-27T01:41:34.610Z,32.9
2018-06-27T01:42:37.067Z,32.7
2018-06-27T01:43:38.743Z,32.6
2018-06-27T01:44:41.179Z,32.7
2018-06-27T01:45:43.633Z,32.6
2018-06-27T01:46:45.869Z,32.7
2018-06-27T01:47:48.316Z,32.7
2018-06-27T01:48:50.518Z,32.9
2018-06-27T01:49:52.980Z,32.7
2018-06-27T01:50:54.852Z,32.8
2018-06-27T01:51:57.034Z,32.6
2018-06-27T01:52:59.218Z,32.9
2018-06-27T01:54:01.390Z,32.7
2018-06-27T01:55:03.285Z,32.8
2018-06-27T01:56:05.188Z,32.7
2018-06-27T01:57:07.371Z,32.9
2018-06-27T01:58:09.809Z,32.7
2018-06-27T01:59:11.724Z,32.7
2018-06-27T02:00:14.170Z,32.9
2018-06-27T02:01:16.323Z,32.6
2018-06-27T02:02:18.759Z,32.7
2018-06-27T02:03:21.215Z,32.8
2018-06-27T02:04:23.377Z,32.7
2018-06-27T02:05:25.544Z,32.8
2018-06-27T02:06:27.466Z,32.7
2018-06-27T02:07:29.658Z,32.9
2018-06-27T02:08:31.569Z,32.7
2018-06-27T02:09:33.487Z,32.8
2018-06-27T02:10:35.393Z,32.8
2018-06-27T02:11:37.839Z,32.7
2018-06-27T02:12:40.296Z,32.9
2018-06-27T02:13:42.438Z,32.8
2018-06-27T02:14:44.900Z,32.9
2018-06-27T02:15:46.823Z,32.7
2018-06-27T02:16:49.265Z,32.9
2018-06-27T02:17:51.438Z,32.9
2018-06-27T02:18:53.892Z,32.8
2018-06-27T02:19:56.049Z,32.7
2018-06-27T02:20:58.503Z,32.8
2018-06-27T02:22:00.410Z,32.8
2018-06-27T02:23:02.595Z,33
2018-06-27T02:24:05.038Z,32.9
2018-06-27T02:25:06.675Z,32.8
2018-06-27T02:26:09.121Z,32.9
2018-06-27T02:27:11.040Z,32.8
2018-06-27T02:28:13.485Z,32.9
2018-06-27T02:29:15.669Z,32.9
2018-06-27T02:30:17.817Z,32.7
2018-06-27T02:31:20.284Z,32.9
2018-06-27T02:32:22.727Z,32.9
2018-06-27T02:33:24.652Z,32.9
2018-06-27T02:34:26.842Z,32.7
2018-06-27T02:35:29.014Z,32.8
2018-06-27T02:36:31.462Z,32.7
2018-06-27T02:37:33.643Z,32.8
2018-06-27T02:38:36.089Z,32.9
2018-06-27T02:39:37.967Z,32.9
2018-06-27T02:40:40.150Z,33
2018-06-27T02:41:42.352Z,32.8
2018-06-27T02:42:44.803Z,32.7
2018-06-27T02:43:47.250Z,33
2018-06-27T02:44:49.152Z,32.9
2018-06-27T02:45:51.321Z,32.8
2018-06-27T02:46:53.483Z,32.6
2018-06-27T02:47:55.944Z,32.8
2018-06-27T02:48:57.825Z,32.8
2018-06-27T02:49:59.969Z,32.9
2018-06-27T02:51:02.163Z,32.9
2018-06-27T02:52:04.600Z,32.9
2018-06-27T02:53:07.041Z,33
2018-06-27T02:54:09.219Z,33.1
2018-06-27T02:55:11.678Z,32.8
2018-06-27T02:56:14.110Z,32.7
2018-06-27T02:57:16.015Z,32.9
2018-06-27T02:58:17.357Z,32.8
2018-06-27T02:59:19.803Z,33
2018-06-27T03:00:22.250Z,32.8
2018-06-27T03:01:24.148Z,32.8
2018-06-27T03:02:26.144Z,33
2018-06-27T03:03:28.873Z,32.7
2018-06-27T03:04:30.758Z,32.9
2018-06-27T03:05:32.932Z,32.9
2018-06-27T03:06:34.546Z,32.9
2018-06-27T03:07:36.691Z,33
2018-06-27T03:08:38.858Z,32.8
2018-06-27T03:09:41.007Z,32.8
2018-06-27T03:10:42.976Z,33
2018-06-27T03:11:44.854Z,33
2018-06-27T03:12:47.306Z,32.8
2018-06-27T03:13:49.744Z,33
2018-06-27T03:14:51.941Z,32.9
2018-06-27T03:15:54.402Z,32.8
2018-06-27T03:16:56.847Z,32.8
2018-06-27T03:17:59.028Z,32.9
2018-06-27T03:19:01.237Z,32.8
2018-06-27T03:20:03.689Z,32.9
2018-06-27T03:21:05.629Z,32.8
2018-06-27T03:22:08.123Z,33
2018-06-27T03:23:10.269Z,33
2018-06-27T03:24:12.711Z,32.7
2018-06-27T03:25:14.892Z,32.8
2018-06-27T03:26:17.078Z,32.8
2018-06-27T03:27:19.235Z,32.9
2018-06-27T03:28:21.430Z,32.5
2018-06-27T03:29:23.576Z,32.7
2018-06-27T03:30:26.035Z,32.8
2018-06-27T03:31:27.680Z,32.7
2018-06-27T03:32:29.879Z,32.9
2018-06-27T03:33:32.319Z,32.8
2018-06-27T03:34:34.772Z,32.5
2018-06-27T03:35:37.248Z,32.8
2018-06-27T03:36:39.735Z,32.8
2018-06-27T03:37:42.195Z,32.6
2018-06-27T03:38:44.361Z,32.8
2018-06-27T03:39:46.821Z,32.5
2018-06-27T03:40:48.999Z,32.7
2018-06-27T03:41:50.869Z,32.7
2018-06-27T03:42:53.034Z,32.7
2018-06-27T03:43:55.474Z,32.8
2018-06-27T03:44:57.390Z,32.8
2018-06-27T03:45:59.579Z,32.6
2018-06-27T03:47:00.931Z,32.8
2018-06-27T03:48:03.380Z,32.7
2018-06-27T03:49:05.561Z,32.6
2018-06-27T03:50:07.731Z,32.7
2018-06-27T03:51:09.910Z,32.6
2018-06-27T03:52:12.079Z,32.6
2018-06-27T03:53:14.239Z,32.8
2018-06-27T03:54:16.732Z,32.7
2018-06-27T03:55:19.172Z,32.7
2018-06-27T03:56:21.621Z,32.6
2018-06-27T03:57:23.803Z,32.5
2018-06-27T03:58:25.684Z,32.6
2018-06-27T03:59:27.869Z,32.6
2018-06-27T04:00:30.313Z,32.6
2018-06-27T04:01:32.483Z,32.5
2018-06-27T04:02:34.657Z,32.6
2018-06-27T04:03:36.874Z,32.7
2018-06-27T04:04:39.058Z,32.6
2018-06-27T04:05:41.497Z,32.6
2018-06-27T04:06:43.670Z,32.5
2018-06-27T04:07:46.125Z,32.6
2018-06-27T04:08:48.566Z,32.6
2018-06-27T04:09:51.011Z,32.6
2018-06-27T04:10:53.190Z,32.6
2018-06-27T04:11:55.359Z,32.6
2018-06-27T04:12:58.057Z,32.6
2018-06-27T04:14:01.271Z,32.5
2018-06-27T04:15:03.728Z,32.7
2018-06-27T04:16:05.913Z,32.4
2018-06-27T04:17:08.349Z,32.7
2018-06-27T04:18:10.583Z,32.5
2018-06-27T04:19:13.047Z,32.3
2018-06-27T04:20:15.482Z,32.6
2018-06-27T04:21:18.019Z,32.3
2018-06-27T04:22:20.471Z,32.5
2018-06-27T04:23:22.649Z,32.5
2018-06-27T04:24:25.104Z,32.4
2018-06-27T04:25:27.286Z,32.5
2018-06-27T04:26:29.470Z,32.6
2018-06-27T04:27:31.919Z,32.6
2018-06-27T04:28:34.372Z,32.5
2018-06-27T04:29:36.833Z,32.6
2018-06-27T04:30:39.037Z,32.4
2018-06-27T04:31:41.211Z,32.4
2018-06-27T04:32:43.426Z,32.4
2018-06-27T04:33:45.307Z,32.6
2018-06-27T04:34:47.752Z,32.6
2018-06-27T04:35:50.220Z,32.5
2018-06-27T04:36:52.184Z,32.4
2018-06-27T04:37:54.628Z,32.6
2018-06-27T04:38:56.529Z,32.6
2018-06-27T04:39:58.698Z,32.6
2018-06-27T04:41:00.879Z,32.5
2018-06-27T04:42:03.324Z,32.6
2018-06-27T04:43:05.528Z,32.5
2018-06-27T04:44:08.203Z,32.4
2018-06-27T04:45:10.122Z,32.5
2018-06-27T04:46:12.342Z,32.6
2018-06-27T04:47:14.247Z,32.4
2018-06-27T04:48:16.148Z,32.4
2018-06-27T04:49:18.600Z,32.6
2018-06-27T04:50:21.047Z,32.4
2018-06-27T04:51:23.489Z,32.8
2018-06-27T04:52:25.978Z,32.6
2018-06-27T04:53:28.173Z,32.5
2018-06-27T04:54:30.341Z,32.6
2018-06-27T04:55:32.793Z,32.3
2018-06-27T04:56:35.256Z,32.4
2018-06-27T04:57:37.719Z,32.6
2018-06-27T04:58:39.889Z,32.3
2018-06-27T04:59:42.347Z,32.6
2018-06-27T05:00:44.521Z,32.5
2018-06-27T05:01:47.036Z,32.6
2018-06-27T05:02:49.757Z,32.5
2018-06-27T05:03:51.648Z,32.4
2018-06-27T05:04:53.795Z,32.5
2018-06-27T05:05:56.245Z,32.5
2018-06-27T05:06:58.691Z,32.4
2018-06-27T05:08:00.600Z,32.6
2018-06-27T05:09:03.075Z,32.4
2018-06-27T05:10:04.986Z,32.6
2018-06-27T05:11:07.166Z,32.6
2018-06-27T05:12:09.625Z,32.7
2018-06-27T05:13:12.071Z,32.6
2018-06-27T05:14:14.518Z,32.5
2018-06-27T05:15:16.960Z,32.4
2018-06-27T05:16:19.153Z,32.4
2018-06-27T05:17:21.323Z,32.6
2018-06-27T05:18:23.551Z,32.6
2018-06-27T05:19:25.585Z,32.5
2018-06-27T05:20:27.883Z,32.4
2018-06-27T05:21:30.378Z,32.2
2018-06-27T05:22:32.173Z,32.4
2018-06-27T05:23:34.730Z,32.5
2018-06-27T05:24:36.745Z,32.5
2018-06-27T05:25:38.981Z,32.5
2018-06-27T05:26:40.650Z,32.5
2018-06-27T05:27:42.308Z,32.6
2018-06-27T05:28:45.371Z,32.4
2018-06-27T05:29:47.823Z,32.6
2018-06-27T05:30:49.997Z,32.3
2018-06-27T05:31:52.177Z,32.3
2018-06-27T05:32:53.830Z,32.3
2018-06-27T05:33:56.047Z,32.5
2018-06-27T05:34:58.393Z,32.3
2018-06-27T05:36:00.569Z,32.5
2018-06-27T05:37:02.739Z,32.5
2018-06-27T05:38:04.659Z,32.5
2018-06-27T05:39:06.838Z,32.4
2018-06-27T05:40:09.277Z,32.4
2018-06-27T05:41:11.461Z,32.3
2018-06-27T05:42:13.617Z,32.4
2018-06-27T05:43:15.787Z,32.3
2018-06-27T05:44:17.983Z,32.3
2018-06-27T05:45:20.112Z,32.6
2018-06-27T05:46:22.561Z,32.5
2018-06-27T05:47:25.019Z,32.3
2018-06-27T05:48:27.229Z,32.3
2018-06-27T05:49:29.127Z,32.5
2018-06-27T05:50:31.302Z,32.4
2018-06-27T05:51:33.770Z,32.6
2018-06-27T05:52:36.313Z,32.6
2018-06-27T05:53:38.486Z,32.3
2018-06-27T05:54:40.947Z,32.5
2018-06-27T05:55:42.555Z,32.3
2018-06-27T05:56:44.473Z,32.4
2018-06-27T05:57:46.922Z,32.5
2018-06-27T05:58:49.359Z,32.6
2018-06-27T05:59:51.517Z,32.7
2018-06-27T06:00:53.707Z,32.5
2018-06-27T06:01:55.887Z,32.4
2018-06-27T06:02:58.052Z,32.4
2018-06-27T06:04:00.506Z,32.3
2018-06-27T06:05:02.958Z,32.5
2018-06-27T06:06:04.872Z,32.4
2018-06-27T06:07:07.335Z,32.5
2018-06-27T06:08:09.779Z,32.4
2018-06-27T06:09:12.233Z,32.4
2018-06-27T06:10:14.419Z,32.2
2018-06-27T06:11:16.992Z,32.5
2018-06-27T06:12:18.968Z,32.3
2018-06-27T06:13:21.452Z,32.3
2018-06-27T06:14:23.620Z,32.6
2018-06-27T06:15:26.161Z,32.4
2018-06-27T06:16:28.071Z,32.4
2018-06-27T06:17:30.517Z,32.5
2018-06-27T06:18:32.716Z,32.5
2018-06-27T06:19:34.879Z,32.6
2018-06-27T06:20:37.083Z,32.3
2018-06-27T06:21:39.550Z,32.5
2018-06-27T06:22:41.729Z,32.3
2018-06-27T06:23:44.183Z,32.5
2018-06-27T06:24:46.632Z,32.4
2018-06-27T06:25:49.090Z,32.3
2018-06-27T06:26:51.534Z,32.4
2018-06-27T06:27:53.974Z,32.3
2018-06-27T06:28:56.426Z,32.3
2018-06-27T06:29:58.342Z,32.3
2018-06-27T06:31:00.526Z,32.4
2018-06-27T06:32:02.743Z,32.3
2018-06-27T06:33:04.424Z,32.3
2018-06-27T06:34:06.607Z,32.3
2018-06-27T06:35:09.065Z,32.3
2018-06-27T06:36:11.509Z,32.2
2018-06-27T06:37:13.970Z,32.3
2018-06-27T06:38:16.136Z,32.3
2018-06-27T06:39:18.303Z,32.3
2018-06-27T06:40:20.188Z,32.4
2018-06-27T06:41:22.378Z,32.3
2018-06-27T06:42:24.278Z,32.3
2018-06-27T06:43:26.725Z,32.2
2018-06-27T06:44:29.213Z,32.1
2018-06-27T06:45:31.411Z,32.3
2018-06-27T06:46:33.590Z,32.3
2018-06-27T06:47:35.508Z,32.1
2018-06-27T06:48:37.963Z,32.2
2018-06-27T06:49:40.405Z,32.4
2018-06-27T06:50:42.577Z,32.1
2018-06-27T06:51:44.455Z,32.3
2018-06-27T06:52:46.901Z,32.3
2018-06-27T06:53:48.823Z,32.5
2018-06-27T06:54:51.284Z,32.5
2018-06-27T06:55:53.732Z,32.3
2018-06-27T06:56:55.908Z,32.3
2018-06-27T06:57:58.359Z,32
2018-06-27T06:59:00.548Z,32.4
2018-06-27T07:00:02.724Z,32.5
2018-06-27T07:01:04.909Z,32.2
2018-06-27T07:02:07.110Z,32.2
2018-06-27T07:03:09.010Z,32.3
2018-06-27T07:04:11.469Z,32.5
2018-06-27T07:05:13.635Z,32.3
2018-06-27T07:06:15.542Z,32.5
2018-06-27T07:07:17.994Z,32.4
2018-06-27T07:08:20.439Z,32
2018-06-27T07:09:22.893Z,32.3
2018-06-27T07:10:25.362Z,32.5
2018-06-27T07:11:27.545Z,32.3
2018-06-27T07:12:30.005Z,32.3
2018-06-27T07:13:31.623Z,32.3
2018-06-27T07:14:34.068Z,32.3
2018-06-27T07:15:36.527Z,32.4
2018-06-27T07:16:38.726Z,32.2
2018-06-27T07:17:40.922Z,32.3
2018-06-27T07:18:42.869Z,32.2
2018-06-27T07:19:45.068Z,32.4
2018-06-27T07:20:47.252Z,32.2
2018-06-27T07:21:49.426Z,32.3
2018-06-27T07:22:51.313Z,32.5
2018-06-27T07:23:53.204Z,32.2
2018-06-27T07:24:55.387Z,32.3
2018-06-27T07:25:57.830Z,32.3
2018-06-27T07:27:00.270Z,32.3
2018-06-27T07:28:02.448Z,32.4
2018-06-27T07:29:04.894Z,32.2
2018-06-27T07:30:06.809Z,31.8
2018-06-27T07:31:08.717Z,32.3
2018-06-27T07:32:10.331Z,32.4
2018-06-27T07:33:12.248Z,32.4
2018-06-27T07:34:14.160Z,32.3
2018-06-27T07:35:16.329Z,32.2
2018-06-27T07:36:18.789Z,32.3
2018-06-27T07:37:20.957Z,32.3
2018-06-27T07:38:22.579Z,32.2
2018-06-27T07:39:25.036Z,32.1
2018-06-27T07:40:27.175Z,32.2
2018-06-27T07:41:29.054Z,32.3
2018-06-27T07:42:31.229Z,32.5
2018-06-27T07:43:33.678Z,32.3
2018-06-27T07:44:35.631Z,32.2
2018-06-27T07:45:37.853Z,32.5
2018-06-27T07:46:40.012Z,32.1
2018-06-27T07:47:41.918Z,32.3
2018-06-27T07:48:44.123Z,32.5
2018-06-27T07:49:46.619Z,32.3
2018-06-27T07:50:49.364Z,32.3
2018-06-27T07:51:51.535Z,32.1
2018-06-27T07:52:53.747Z,32.3
2018-06-27T07:53:56.198Z,32.2
2018-06-27T07:54:58.654Z,32.3
2018-06-27T07:56:00.821Z,32.3
2018-06-27T07:57:03.005Z,32.1
2018-06-27T07:58:05.458Z,32.6
2018-06-27T07:59:07.628Z,32.3
2018-06-27T08:00:09.531Z,32.3
2018-06-27T08:01:11.716Z,32.3
2018-06-27T08:02:13.904Z,32.4
2018-06-27T08:03:16.357Z,32.3
2018-06-27T08:04:18.538Z,32.5
2018-06-27T08:05:20.718Z,32.1
2018-06-27T08:06:23.154Z,32.4
2018-06-27T08:07:25.331Z,32.2
2018-06-27T08:08:27.782Z,32.3
2018-06-27T08:09:29.967Z,32.3
2018-06-27T08:10:32.170Z,32.4
2018-06-27T08:11:34.618Z,32.5
2018-06-27T08:12:36.569Z,32.2
2018-06-27T08:13:38.621Z,32.4
2018-06-27T08:14:40.503Z,32.4
2018-06-27T08:15:42.967Z,32.1
2018-06-27T08:16:45.151Z,32.2
2018-06-27T08:17:47.146Z,32.1
2018-06-27T08:18:49.266Z,32.1
2018-06-27T08:19:51.463Z,32.1
2018-06-27T08:20:53.920Z,32.3
2018-06-27T08:21:56.381Z,32.5
2018-06-27T08:22:58.844Z,32.2
2018-06-27T08:24:00.991Z,32.4
2018-06-27T08:25:03.440Z,32.1
2018-06-27T08:26:05.637Z,32.5
2018-06-27T08:27:08.513Z,32.1
2018-06-27T08:28:10.672Z,32.3
2018-06-27T08:29:12.329Z,32.4
2018-06-27T08:30:14.247Z,32.2
2018-06-27T08:31:16.689Z,32.5
2018-06-27T08:32:19.134Z,32.1
2018-06-27T08:33:21.579Z,32.5
2018-06-27T08:34:23.768Z,32.3
2018-06-27T08:35:25.418Z,32.2
2018-06-27T08:36:27.599Z,32.4
2018-06-27T08:37:29.768Z,32.5
2018-06-27T08:38:32.233Z,32
2018-06-27T08:39:34.686Z,32.2
2018-06-27T08:40:37.137Z,32.3
2018-06-27T08:41:39.063Z,32.4
2018-06-27T08:42:41.228Z,32.1
2018-06-27T08:43:43.708Z,32.2
2018-06-27T08:44:46.508Z,32.3
2018-06-27T08:45:48.967Z,32.5
2018-06-27T08:46:50.873Z,32.4
2018-06-27T08:47:52.760Z,32.5
2018-06-27T08:48:54.673Z,32.3
2018-06-27T08:49:56.926Z,32.4
2018-06-27T08:50:59.578Z,32.4
2018-06-27T08:52:01.747Z,32.3
2018-06-27T08:53:03.929Z,32.3
2018-06-27T08:54:06.378Z,32.1
2018-06-27T08:55:08.249Z,32.1
2018-06-27T08:56:10.706Z,32.4
2018-06-27T08:57:12.596Z,32.3
2018-06-27T08:58:15.043Z,32.3
2018-06-27T08:59:17.503Z,32.4
2018-06-27T09:00:19.947Z,32.2
2018-06-27T09:01:22.129Z,32.5
2018-06-27T09:02:24.341Z,32.1
2018-06-27T09:03:26.796Z,32.2
2018-06-27T09:04:29.019Z,32.2
2018-06-27T09:05:31.181Z,32.3
2018-06-27T09:06:33.637Z,32.3
2018-06-27T09:07:36.134Z,32.2
2018-06-27T09:08:38.049Z,32.1
2018-06-27T09:09:39.961Z,32.2
2018-06-27T09:10:42.413Z,32.2
2018-06-27T09:11:44.860Z,32.4
2018-06-27T09:12:47.042Z,32.3
2018-06-27T09:13:48.915Z,32.3
2018-06-27T09:14:51.097Z,32.4
2018-06-27T09:15:53.027Z,32.4
2018-06-27T09:16:54.939Z,32.6
2018-06-27T09:17:57.401Z,32.5
2018-06-27T09:18:59.583Z,32.3
2018-06-27T09:20:01.471Z,32
2018-06-27T09:21:03.652Z,32.2
2018-06-27T09:22:05.832Z,32.2
2018-06-27T09:23:08.295Z,32.3
2018-06-27T09:24:10.216Z,32.3
2018-06-27T09:25:12.659Z,32.3
2018-06-27T09:26:14.569Z,32.3
2018-06-27T09:27:17.018Z,32.1
2018-06-27T09:28:19.199Z,32
2018-06-27T09:29:21.382Z,32.1
2018-06-27T09:30:23.549Z,32.2
2018-06-27T09:31:26.010Z,32.2
2018-06-27T09:32:27.924Z,32.2
2018-06-27T09:33:30.102Z,32.3
2018-06-27T09:34:32.549Z,32.4
2018-06-27T09:35:34.744Z,32.4
2018-06-27T09:36:36.928Z,32
2018-06-27T09:37:39.116Z,32.3
2018-06-27T09:38:41.289Z,32.2
2018-06-27T09:39:43.207Z,32.2
2018-06-27T09:40:45.085Z,32.3
2018-06-27T09:41:47.258Z,32.3
2018-06-27T09:42:49.783Z,32.2
2018-06-27T09:43:52.230Z,32.5
2018-06-27T09:44:54.399Z,32.3
2018-06-27T09:45:56.558Z,32.5
2018-06-27T09:46:58.749Z,32.2
2018-06-27T09:48:01.002Z,32.3
2018-06-27T09:49:03.602Z,32.5
2018-06-27T09:50:06.045Z,32.4
2018-06-27T09:51:08.501Z,32.3
2018-06-27T09:52:10.949Z,32.2
2018-06-27T09:53:13.394Z,32.6
2018-06-27T09:54:15.046Z,32.3
2018-06-27T09:55:17.480Z,32.6
2018-06-27T09:56:19.629Z,32.5
2018-06-27T09:57:22.089Z,32.4
2018-06-27T09:58:24.270Z,32.2
2018-06-27T09:59:26.419Z,32.2
2018-06-27T10:00:28.569Z,32
2018-06-27T10:01:30.716Z,32.3
2018-06-27T10:02:32.869Z,32.3
2018-06-27T10:03:35.328Z,32.5
2018-06-27T10:04:37.792Z,32.3
2018-06-27T10:05:39.974Z,32.2
2018-06-27T10:06:42.408Z,32.5
2018-06-27T10:07:44.360Z,32.2
2018-06-27T10:08:46.562Z,32.1
2018-06-27T10:09:48.748Z,32.5
2018-06-27T10:10:51.228Z,32.2
2018-06-27T10:11:53.692Z,32
2018-06-27T10:12:55.894Z,32.3
2018-06-27T10:13:58.058Z,32.1
2018-06-27T10:15:00.509Z,32.3
2018-06-27T10:16:02.692Z,32.6
2018-06-27T10:17:05.150Z,32.2
2018-06-27T10:18:07.686Z,32.3
2018-06-27T10:19:09.881Z,32.2
2018-06-27T10:20:11.768Z,32.6
2018-06-27T10:21:13.649Z,32.5
2018-06-27T10:22:15.884Z,32.3
2018-06-27T10:23:18.458Z,32.3
2018-06-27T10:24:20.376Z,32.4
2018-06-27T10:25:22.528Z,32.2
2018-06-27T10:26:24.694Z,32.3
2018-06-27T10:27:26.875Z,32.4
2018-06-27T10:28:29.349Z,32.4
2018-06-27T10:29:32.161Z,32.3
2018-06-27T10:30:34.338Z,32.5
2018-06-27T10:31:36.781Z,32.5
2018-06-27T10:32:38.958Z,32.5
2018-06-27T10:33:41.397Z,32.6
2018-06-27T10:34:43.578Z,32.3
2018-06-27T10:35:45.852Z,32.4
2018-06-27T10:36:48.620Z,32.4
2018-06-27T10:37:50.497Z,32.3
2018-06-27T10:38:52.671Z,32.4
2018-06-27T10:39:54.915Z,32.2
2018-06-27T10:40:56.791Z,32.6
2018-06-27T10:41:58.943Z,32.3
2018-06-27T10:43:01.403Z,32.2
2018-06-27T10:44:03.858Z,32.3
2018-06-27T10:45:06.012Z,32.4
2018-06-27T10:46:08.173Z,32.6
2018-06-27T10:47:10.348Z,32.6
2018-06-27T10:48:12.800Z,32.4
2018-06-27T10:49:15.251Z,32.5
2018-06-27T10:50:17.709Z,32.6
2018-06-27T10:51:20.164Z,32.2
2018-06-27T10:52:22.340Z,32.5
2018-06-27T10:53:24.254Z,32.4
2018-06-27T10:54:26.428Z,32.5
2018-06-27T10:55:28.349Z,32.2
2018-06-27T10:56:30.812Z,32.4
2018-06-27T10:57:32.713Z,32.5
2018-06-27T10:58:35.156Z,32.6
2018-06-27T10:59:37.610Z,32.3
2018-06-27T11:00:39.803Z,32.4
2018-06-27T11:01:41.958Z,32.3
2018-06-27T11:02:44.138Z,32.4
2018-06-27T11:03:46.047Z,32.4
2018-06-27T11:04:48.497Z,32.4
2018-06-27T11:05:50.932Z,32.5
2018-06-27T11:06:53.115Z,32.5
2018-06-27T11:07:55.566Z,32.4
2018-06-27T11:08:57.745Z,32.2
2018-06-27T11:10:00.183Z,32.3
2018-06-27T11:11:02.392Z,32.3
2018-06-27T11:12:04.578Z,32.6
2018-06-27T11:13:06.494Z,32.4
2018-06-27T11:14:08.974Z,32.3
2018-06-27T11:15:11.279Z,32.5
2018-06-27T11:16:13.449Z,32.5
2018-06-27T11:17:15.902Z,32.4
2018-06-27T11:18:18.065Z,32.5
2018-06-27T11:19:20.228Z,32.4
2018-06-27T11:20:22.712Z,32.3
2018-06-27T11:21:25.050Z,32.2
2018-06-27T11:22:27.219Z,32.2
2018-06-27T11:23:29.673Z,32.5
2018-06-27T11:24:31.849Z,32.3
2018-06-27T11:25:33.776Z,32.3
2018-06-27T11:26:35.967Z,32.5
2018-06-27T11:27:38.440Z,32.5
2018-06-27T11:28:40.623Z,32.4
2018-06-27T11:29:42.835Z,32.4
2018-06-27T11:30:45.015Z,32.3
2018-06-27T11:31:47.483Z,32.4
2018-06-27T11:32:50.018Z,32.5
2018-06-27T11:33:52.620Z,32.4
2018-06-27T11:34:55.065Z,32.3
2018-06-27T11:35:57.519Z,32.4
2018-06-27T11:36:59.979Z,32.4
2018-06-27T11:38:01.909Z,32.4
2018-06-27T11:39:03.559Z,32.6
2018-06-27T11:40:05.462Z,32.6
2018-06-27T11:41:07.921Z,32.5
2018-06-27T11:42:10.136Z,32.6
2018-06-27T11:43:12.355Z,32.5
2018-06-27T11:44:15.014Z,32.2
2018-06-27T11:45:17.485Z,32.4
2018-06-27T11:46:19.649Z,32.5
2018-06-27T11:47:22.103Z,32.6
2018-06-27T11:48:24.285Z,32.5
2018-06-27T11:49:25.918Z,32.4
2018-06-27T11:50:28.380Z,32.5
2018-06-27T11:51:30.542Z,32.2
2018-06-27T11:52:33.015Z,32.6
2018-06-27T11:53:35.168Z,32.3
2018-06-27T11:54:37.076Z,32.4
2018-06-27T11:55:38.969Z,32.3
2018-06-27T11:56:41.147Z,32.5
2018-06-27T11:57:43.338Z,32.3
2018-06-27T11:58:45.789Z,32.4
2018-06-27T11:59:47.942Z,32.5
2018-06-27T12:00:50.390Z,32.6
2018-06-27T12:01:52.869Z,32.4
2018-06-27T12:02:55.040Z,32.2
2018-06-27T12:03:57.488Z,32.4
2018-06-27T12:04:59.672Z,32.4
2018-06-27T12:06:01.859Z,32.4
2018-06-27T12:07:04.042Z,32.3
2018-06-27T12:08:05.929Z,32.4
2018-06-27T12:09:08.372Z,32.3
2018-06-27T12:10:10.559Z,32.5
2018-06-27T12:11:12.440Z,32.4
2018-06-27T12:12:14.878Z,32.5
2018-06-27T12:13:17.343Z,32.3
2018-06-27T12:14:19.787Z,32.6
2018-06-27T12:15:21.984Z,32.3
2018-06-27T12:16:24.428Z,32.4
2018-06-27T12:17:26.876Z,32.5
2018-06-27T12:18:29.329Z,32.4
2018-06-27T12:19:31.778Z,32.4
2018-06-27T12:20:33.955Z,32.5
2018-06-27T12:21:36.422Z,32.5
2018-06-27T12:22:38.598Z,32.3
2018-06-27T12:23:40.519Z,32.3
2018-06-27T12:24:42.706Z,32.4
2018-06-27T12:25:45.153Z,32.6
2018-06-27T12:26:47.318Z,32.4
2018-06-27T12:27:49.507Z,32.4
2018-06-27T12:28:51.668Z,32.5
2018-06-27T12:29:54.123Z,32.6
2018-06-27T12:30:56.047Z,32.3
2018-06-27T12:31:58.499Z,32.4
2018-06-27T12:33:00.121Z,32.7
2018-06-27T12:34:02.590Z,32.3
2018-06-27T12:35:05.079Z,32.3
2018-06-27T12:36:07.254Z,32.4
2018-06-27T12:37:09.121Z,32.5
2018-06-27T12:38:11.570Z,32.5
2018-06-27T12:39:13.484Z,32.2
2018-06-27T12:40:15.932Z,32.4
2018-06-27T12:41:17.838Z,32.2
2018-06-27T12:42:20.051Z,32.2
2018-06-27T12:43:21.928Z,32.4
2018-06-27T12:44:24.178Z,32.4
2018-06-27T12:45:27.142Z,32.4
2018-06-27T12:46:29.639Z,32.4
2018-06-27T12:47:31.822Z,32.4
2018-06-27T12:48:34.275Z,32.2
2018-06-27T12:49:36.725Z,32.1
2018-06-27T12:50:39.168Z,32.4
2018-06-27T12:51:41.343Z,32.3
2018-06-27T12:52:43.498Z,32.3
2018-06-27T12:53:45.974Z,32.4
2018-06-27T12:54:48.128Z,32.4
2018-06-27T12:55:50.348Z,32.4
2018-06-27T12:56:51.960Z,32.4
2018-06-27T12:57:54.148Z,32.4
2018-06-27T12:58:56.327Z,32.4
2018-06-27T12:59:58.500Z,32.2
2018-06-27T13:01:00.418Z,32.4
2018-06-27T13:02:02.895Z,32.3
2018-06-27T13:03:05.345Z,32.3
2018-06-27T13:04:07.251Z,32.3
2018-06-27T13:05:09.424Z,32.4
2018-06-27T13:06:10.767Z,32.2
2018-06-27T13:07:12.788Z,32.3
2018-06-27T13:08:14.904Z,32.3
2018-06-27T13:09:17.319Z,32.4
2018-06-27T13:10:20.787Z,32.3
2018-06-27T13:11:23.232Z,32.2
2018-06-27T13:12:25.691Z,32.1
2018-06-27T13:13:28.145Z,32.3
2018-06-27T13:14:29.504Z,32.5
2018-06-27T13:15:31.679Z,32.4
2018-06-27T13:16:33.863Z,32.1
2018-06-27T13:17:36.319Z,32.4
2018-06-27T13:18:38.467Z,32.3
2018-06-27T13:19:40.643Z,32.5
2018-06-27T13:20:42.828Z,32.2
2018-06-27T13:21:45.269Z,32.4
2018-06-27T13:22:47.443Z,32.4
2018-06-27T13:23:49.672Z,32.3
2018-06-27T13:24:51.697Z,32.4
2018-06-27T13:25:53.608Z,32.5
2018-06-27T13:26:55.846Z,32.4
2018-06-27T13:27:57.995Z,32.2
2018-06-27T13:29:00.453Z,32.5
2018-06-27T13:30:02.630Z,32.3
2018-06-27T13:31:04.820Z,32.3
2018-06-27T13:32:07.003Z,32.4
2018-06-27T13:33:09.450Z,32.4
2018-06-27T13:34:11.641Z,32.5
2018-06-27T13:35:14.096Z,32.1
2018-06-27T13:36:16.278Z,32.4
2018-06-27T13:37:18.728Z,32.5
2018-06-27T13:38:20.924Z,32.3
2018-06-27T13:39:23.103Z,32.5
2018-06-27T13:40:25.273Z,32.4
2018-06-27T13:41:27.154Z,32.3
2018-06-27T13:42:29.594Z,32.4
2018-06-27T13:43:32.043Z,32.4
2018-06-27T13:44:34.484Z,32.5
2018-06-27T13:45:36.651Z,32.3
2018-06-27T13:46:39.131Z,32.3
2018-06-27T13:47:41.579Z,32.5
2018-06-27T13:48:43.725Z,32.3
2018-06-27T13:49:45.882Z,32.3